createdAt,value
2018-12-16T00:02:30.093Z,99158.17
2018-12-16T00:05:01.569Z,99149.23
2018-12-16T00:07:32.621Z,99144.16
2018-12-16T00:10:03.622Z,99147.64
2018-12-16T00:12:34.488Z,99156.26
2018-12-16T00:15:05.606Z,99150.38
2018-12-16T00:17:36.630Z,99150.50
2018-12-16T00:20:07.811Z,99151.41
2018-12-16T00:22:39.369Z,99154.80
2018-12-16T00:25:10.523Z,99157.82
2018-12-16T00:27:41.361Z,99159.08
2018-12-16T00:30:12.429Z,99149.80
2018-12-16T00:32:43.461Z,99150.25
2018-12-16T00:35:14.291Z,99141.35
2018-12-16T00:37:45.342Z,99151.94
2018-12-16T00:40:17.020Z,99164.67
2018-12-16T00:42:47.955Z,99151.11
2018-12-16T00:45:19.883Z,99157.53
2018-12-16T00:47:50.722Z,99158.37
2018-12-16T00:50:21.517Z,99151.09
2018-12-16T00:52:52.377Z,99148.95
2018-12-16T00:55:23.277Z,99151.52
2018-12-16T00:57:54.204Z,99150.29
2018-12-16T01:00:25.111Z,99158.81
2018-12-16T01:02:55.960Z,99165.16
2018-12-16T01:05:26.693Z,99160.00
2018-12-16T01:07:57.545Z,99165.06
2018-12-16T01:10:28.504Z,99160.73
2018-12-16T01:12:59.131Z,99151.36
2018-12-16T01:15:29.683Z,99139.92
2018-12-16T01:18:00.584Z,99139.53
2018-12-16T01:20:31.384Z,99139.13
2018-12-16T01:23:02.141Z,99137.08
2018-12-16T01:25:33.157Z,99139.20
2018-12-16T01:28:03.841Z,99136.64
2018-12-16T01:30:34.684Z,99160.06
2018-12-16T01:33:05.530Z,99165.61
2018-12-16T01:35:36.442Z,99177.94
2018-12-16T01:38:07.574Z,99189.80
2018-12-16T01:40:38.438Z,99182.15
2018-12-16T01:43:09.620Z,99185.14
2018-12-16T01:45:40.338Z,99173.20
2018-12-16T01:48:11.275Z,99157.02
2018-12-16T01:50:42.149Z,99152.34
2018-12-16T01:53:13.015Z,99150.18
2018-12-16T01:55:43.957Z,99165.39
2018-12-16T01:58:14.601Z,99165.31
2018-12-16T02:00:45.364Z,99160.80
2018-12-16T02:03:16.241Z,99154.06
2018-12-16T02:05:47.321Z,99142.66
2018-12-16T02:08:18.232Z,99152.24
2018-12-16T02:10:48.977Z,99158.91
2018-12-16T02:13:19.896Z,99152.59
2018-12-16T02:15:50.502Z,99162.61
2018-12-16T02:18:21.107Z,99165.29
2018-12-16T02:20:51.925Z,99157.70
2018-12-16T02:23:22.569Z,99147.11
2018-12-16T02:25:53.470Z,99147.14
2018-12-16T02:28:24.485Z,99145.88
2018-12-16T02:30:55.243Z,99144.16
2018-12-16T02:33:25.977Z,99130.56
2018-12-16T02:35:56.685Z,99139.92
2018-12-16T02:38:27.863Z,99140.83
2018-12-16T02:40:58.649Z,99145.53
2018-12-16T02:43:29.508Z,99140.01
2018-12-16T02:46:00.410Z,99131.85
2018-12-16T02:48:31.305Z,99127.97
2018-12-16T02:51:02.112Z,99128.84
2018-12-16T02:53:32.889Z,99130.16
2018-12-16T02:56:06.854Z,99143.28
2018-12-16T02:58:37.713Z,99136.98
2018-12-16T03:01:08.319Z,99128.56
2018-12-16T03:03:39.006Z,99129.03
2018-12-16T03:06:10.029Z,99132.02
2018-12-16T03:08:40.733Z,99122.69
2018-12-16T03:11:11.689Z,99127.36
2018-12-16T03:13:43.046Z,99126.52
2018-12-16T03:16:13.925Z,99115.91
2018-12-16T03:18:46.152Z,99115.00
2018-12-16T03:21:16.913Z,99118.35
2018-12-16T03:23:47.711Z,99119.19
2018-12-16T03:26:18.488Z,99118.72
2018-12-16T03:28:49.420Z,99110.27
2018-12-16T03:31:20.413Z,99115.84
2018-12-16T03:33:51.336Z,99120.48
2018-12-16T03:36:22.318Z,99131.96
2018-12-16T03:38:53.265Z,99130.70
2018-12-16T03:41:24.088Z,99140.47
2018-12-16T03:43:54.728Z,99141.70
2018-12-16T03:46:25.819Z,99140.87
2018-12-16T03:48:56.897Z,99144.25
2018-12-16T03:51:27.581Z,99140.39
2018-12-16T03:53:58.390Z,99126.75
2018-12-16T03:56:28.989Z,99120.79
2018-12-16T03:59:17.720Z,99122.03
2018-12-16T04:01:54.183Z,99111.32
2018-12-16T04:04:25.474Z,99113.36
2018-12-16T04:06:56.470Z,99115.37
2018-12-16T04:09:27.261Z,99107.63
2018-12-16T04:11:58.058Z,99119.42
2018-12-16T04:14:29.485Z,99121.90
2018-12-16T04:17:00.292Z,99119.23
2018-12-16T04:19:31.403Z,99120.89
2018-12-16T04:22:02.424Z,99125.48
2018-12-16T04:24:33.017Z,99123.31
2018-12-16T04:27:03.895Z,99122.48
2018-12-16T04:29:34.690Z,99114.42
2018-12-16T04:32:05.391Z,99107.52
2018-12-16T04:34:36.232Z,99103.18
2018-12-16T04:37:07.039Z,99106.55
2018-12-16T04:39:37.984Z,99104.80
2018-12-16T04:42:09.787Z,99112.53
2018-12-16T04:44:40.601Z,99112.98
2018-12-16T04:47:11.430Z,99124.55
2018-12-16T04:49:42.253Z,99124.66
2018-12-16T04:52:13.314Z,99137.09
2018-12-16T04:54:44.187Z,99141.44
2018-12-16T04:57:14.985Z,99133.85
2018-12-16T04:59:45.899Z,99121.20
2018-12-16T05:02:16.789Z,99121.65
2018-12-16T05:04:47.549Z,99119.09
2018-12-16T05:07:18.789Z,99112.22
2018-12-16T05:09:49.567Z,99112.44
2018-12-16T05:12:20.179Z,99113.66
2018-12-16T05:14:51.123Z,99125.71
2018-12-16T05:17:22.178Z,99132.70
2018-12-16T05:19:52.870Z,99141.30
2018-12-16T05:22:24.089Z,99147.34
2018-12-16T05:24:55.203Z,99147.79
2018-12-16T05:27:26.080Z,99145.35
2018-12-16T05:29:57.043Z,99128.85
2018-12-16T05:32:28.042Z,99124.70
2018-12-16T05:34:59.099Z,99117.13
2018-12-16T05:37:29.872Z,99106.06
2018-12-16T05:40:01.399Z,99114.62
2018-12-16T05:42:32.189Z,99113.33
2018-12-16T05:45:02.899Z,99124.06
2018-12-16T05:47:33.959Z,99125.84
2018-12-16T05:50:05.631Z,99130.98
2018-12-16T05:52:36.486Z,99132.72
2018-12-16T05:55:07.587Z,99137.80
2018-12-16T05:57:38.401Z,99139.06
2018-12-16T06:00:09.467Z,99136.47
2018-12-16T06:02:40.090Z,99133.47
2018-12-16T06:05:10.921Z,99127.06
2018-12-16T06:07:41.516Z,99116.84
2018-12-16T06:10:12.387Z,99104.09
2018-12-16T06:12:43.648Z,99096.42
2018-12-16T06:15:14.638Z,99099.31
2018-12-16T06:17:46.225Z,99098.01
2018-12-16T06:20:17.906Z,99094.70
2018-12-16T06:22:48.806Z,99091.76
2018-12-16T06:25:19.397Z,99101.99
2018-12-16T06:27:50.084Z,99104.11
2018-12-16T06:30:22.475Z,99108.40
2018-12-16T06:32:53.464Z,99106.30
2018-12-16T06:35:24.359Z,99107.17
2018-12-16T06:37:55.302Z,99105.45
2018-12-16T06:40:26.107Z,99110.98
2018-12-16T06:43:00.068Z,99113.05
2018-12-16T06:45:30.850Z,99112.59
2018-12-16T06:48:01.729Z,99113.78
2018-12-16T06:50:32.579Z,99110.25
2018-12-16T06:53:03.722Z,99112.70
2018-12-16T06:55:34.560Z,99119.88
2018-12-16T06:58:05.409Z,99118.09
2018-12-16T07:00:36.470Z,99114.58
2018-12-16T07:03:07.468Z,99110.67
2018-12-16T07:05:38.356Z,99116.11
2018-12-16T07:08:09.318Z,99123.25
2018-12-16T07:10:40.901Z,99123.57
2018-12-16T07:13:11.910Z,99123.95
2018-12-16T07:15:42.774Z,99129.18
2018-12-16T07:18:13.531Z,99132.68
2018-12-16T07:20:44.352Z,99131.97
2018-12-16T07:23:14.999Z,99145.20
2018-12-16T07:25:46.500Z,99138.85
2018-12-16T07:28:17.172Z,99142.30
2018-12-16T07:30:48.110Z,99142.82
2018-12-16T07:33:18.887Z,99141.22
2018-12-16T07:35:55.081Z,99137.14
2018-12-16T07:38:27.954Z,99143.59
2018-12-16T07:40:58.963Z,99141.95
2018-12-16T07:43:30.568Z,99150.58
2018-12-16T07:46:01.478Z,99145.90
2018-12-16T07:48:32.838Z,99139.52
2018-12-16T07:51:03.769Z,99136.78
2018-12-16T07:53:34.665Z,99147.71
2018-12-16T07:56:05.633Z,99150.71
2018-12-16T07:58:36.890Z,99151.80
2018-12-16T08:01:07.739Z,99156.46
2018-12-16T08:03:38.896Z,99162.89
2018-12-16T08:06:09.952Z,99152.69
2018-12-16T08:08:42.358Z,99154.94
2018-12-16T08:11:13.664Z,99152.23
2018-12-16T08:13:44.671Z,99155.81
2018-12-16T08:16:15.817Z,99160.82
2018-12-16T08:18:46.588Z,99153.60
2018-12-16T08:21:19.988Z,99160.20
2018-12-16T08:23:51.033Z,99160.22
2018-12-16T08:26:22.463Z,99169.17
2018-12-16T08:28:53.557Z,99157.59
2018-12-16T08:31:24.698Z,99164.08
2018-12-16T08:33:55.777Z,99178.53
2018-12-16T08:36:28.480Z,99177.70
2018-12-16T08:39:00.065Z,99171.21
2018-12-16T08:41:31.343Z,99178.91
2018-12-16T08:44:02.467Z,99178.37
2018-12-16T08:46:34.946Z,99175.06
2018-12-16T08:49:06.138Z,99169.58
2018-12-16T08:51:37.026Z,99167.95
2018-12-16T08:54:08.761Z,99170.59
2018-12-16T08:56:40.298Z,99187.81
2018-12-16T08:59:12.341Z,99202.91
2018-12-16T09:01:43.779Z,99212.50
2018-12-16T09:04:15.113Z,99216.52
2018-12-16T09:06:47.595Z,99199.03
2018-12-16T09:09:19.558Z,99211.91
2018-12-16T09:11:51.493Z,99205.30
2018-12-16T09:14:24.577Z,99197.34
2018-12-16T09:16:55.650Z,99195.47
2018-12-16T09:19:27.482Z,99202.08
2018-12-16T09:21:59.841Z,99192.45
2018-12-16T09:24:37.002Z,99191.93
2018-12-16T09:27:04.291Z,99185.51
2018-12-16T09:29:36.338Z,99177.28
2018-12-16T09:32:08.323Z,99185.19
2018-12-16T09:34:40.034Z,99193.45
2018-12-16T09:37:11.819Z,99196.80
2018-12-16T09:39:42.723Z,99193.55
2018-12-16T09:42:14.057Z,99182.12
2018-12-16T09:44:45.466Z,99171.63
2018-12-16T09:47:18.030Z,99165.07
2018-12-16T09:49:50.089Z,99160.94
2018-12-16T09:52:21.376Z,99157.16
2018-12-16T09:54:53.036Z,99159.07
2018-12-16T09:57:24.962Z,99165.95
2018-12-16T09:59:56.768Z,99172.08
2018-12-16T10:02:28.496Z,99170.23
2018-12-16T10:04:59.714Z,99160.50
2018-12-16T10:07:30.872Z,99151.94
2018-12-16T10:10:03.421Z,99148.16
2018-12-16T10:12:34.250Z,99138.41
2018-12-16T10:15:05.849Z,99137.14
2018-12-16T10:17:37.201Z,99134.92
2018-12-16T10:20:10.235Z,99145.77
2018-12-16T10:22:41.339Z,99133.00
2018-12-16T10:25:12.733Z,99129.38
2018-12-16T10:27:43.938Z,99119.92
2018-12-16T10:30:15.081Z,99109.30
2018-12-16T10:32:46.576Z,99105.41
2018-12-16T10:35:17.672Z,99107.09
2018-12-16T10:37:49.614Z,99113.47
2018-12-16T10:40:20.455Z,99100.53
2018-12-16T10:42:51.676Z,99096.98
2018-12-16T10:45:23.590Z,99107.59
2018-12-16T10:47:54.540Z,99094.33
2018-12-16T10:50:25.681Z,99096.19
2018-12-16T10:52:56.691Z,99104.07
2018-12-16T10:55:27.688Z,99114.57
2018-12-16T10:57:58.510Z,99112.23
2018-12-16T11:00:34.460Z,99113.77
2018-12-16T11:03:05.821Z,99105.79
2018-12-16T11:05:37.096Z,99102.09
2018-12-16T11:08:08.380Z,99095.95
2018-12-16T11:10:39.406Z,99103.59
2018-12-16T11:13:10.716Z,99103.69
2018-12-16T11:15:41.633Z,99104.68
2018-12-16T11:18:13.278Z,99106.34
2018-12-16T11:20:44.422Z,99101.85
2018-12-16T11:23:15.469Z,99110.44
2018-12-16T11:25:52.341Z,99117.66
2018-12-16T11:28:24.353Z,99115.34
2018-12-16T11:30:55.675Z,99106.66
2018-12-16T11:33:26.967Z,99109.75
2018-12-16T11:35:58.956Z,99088.09
2018-12-16T11:38:29.853Z,99087.98
2018-12-16T11:41:00.880Z,99079.89
2018-12-16T11:43:32.202Z,99065.06
2018-12-16T11:46:03.505Z,99057.95
2018-12-16T11:48:34.382Z,99050.95
2018-12-16T11:51:06.062Z,99045.90
2018-12-16T11:53:37.342Z,99036.05
2018-12-16T11:56:08.264Z,99031.48
2018-12-16T11:58:39.920Z,99030.41
2018-12-16T12:01:10.571Z,99026.43
2018-12-16T12:03:42.110Z,99023.88
2018-12-16T12:06:13.557Z,99035.35
2018-12-16T12:08:45.576Z,99035.20
2018-12-16T12:11:16.546Z,99036.14
2018-12-16T12:13:47.364Z,99028.89
2018-12-16T12:16:18.603Z,99025.27
2018-12-16T12:19:01.711Z,99026.09
2018-12-16T12:21:32.520Z,99003.47
2018-12-16T12:24:03.325Z,98991.05
2018-12-16T12:26:34.717Z,98992.51
2018-12-16T12:29:05.798Z,98988.95
2018-12-16T12:31:36.713Z,98991.30
2018-12-16T12:34:07.591Z,98984.36
2018-12-16T12:36:38.521Z,98990.15
2018-12-16T12:39:09.390Z,98987.37
2018-12-16T12:41:40.423Z,98989.89
2018-12-16T12:44:11.623Z,98990.98
2018-12-16T12:46:42.655Z,98982.84
2018-12-16T12:49:14.739Z,98978.63
2018-12-16T12:51:45.698Z,98994.77
2018-12-16T12:54:17.714Z,98986.48
2018-12-16T12:56:48.603Z,98977.64
2018-12-16T12:59:20.292Z,98988.03
2018-12-16T13:01:51.355Z,99002.30
2018-12-16T13:04:22.586Z,99014.24
2018-12-16T13:06:53.603Z,99014.17
2018-12-16T13:09:25.175Z,99026.53
2018-12-16T13:11:57.150Z,99026.78
2018-12-16T13:14:28.633Z,99026.78
2018-12-16T13:17:00.398Z,99015.72
2018-12-16T13:19:31.769Z,99004.91
2018-12-16T13:22:03.688Z,99001.82
2018-12-16T13:24:34.777Z,98993.51
2018-12-16T13:27:06.122Z,98984.65
2018-12-16T13:29:37.014Z,98979.11
2018-12-16T13:32:09.023Z,98968.51
2018-12-16T13:34:40.253Z,98964.13
2018-12-16T13:37:11.146Z,98948.09
2018-12-16T13:39:42.013Z,98962.80
2018-12-16T13:42:13.069Z,98980.77
2018-12-16T13:44:43.793Z,98993.63
2018-12-16T13:47:15.046Z,98995.56
2018-12-16T13:49:46.352Z,99002.51
2018-12-16T13:52:17.243Z,99013.06
2018-12-16T13:54:48.821Z,99010.50
2018-12-16T13:57:19.826Z,99006.12
2018-12-16T13:59:50.955Z,99010.41
2018-12-16T14:02:22.018Z,99009.03
2018-12-16T14:04:53.153Z,98996.90
2018-12-16T14:07:24.346Z,98984.77
2018-12-16T14:09:55.541Z,98985.58
2018-12-16T14:12:27.285Z,98980.11
2018-12-16T14:14:58.646Z,98975.82
2018-12-16T14:17:29.734Z,98971.39
2018-12-16T14:20:01.594Z,98969.11
2018-12-16T14:22:33.335Z,98979.72
2018-12-16T14:25:05.189Z,98982.09
2018-12-16T14:27:36.191Z,98982.84
2018-12-16T14:30:10.529Z,98981.38
2018-12-16T14:32:41.704Z,98989.39
2018-12-16T14:35:13.471Z,98989.06
2018-12-16T14:37:46.212Z,98983.32
2018-12-16T14:40:18.633Z,98985.02
2018-12-16T14:42:49.771Z,98972.27
2018-12-16T14:45:21.057Z,98984.99
2018-12-16T14:47:53.449Z,98985.58
2018-12-16T14:50:24.949Z,98980.55
2018-12-16T14:52:57.216Z,98970.72
2018-12-16T14:55:28.307Z,98973.99
2018-12-16T14:57:59.738Z,98975.98
2018-12-16T15:00:30.835Z,98971.33
2018-12-16T15:03:03.164Z,98965.30
2018-12-16T15:05:35.189Z,98970.53
2018-12-16T15:08:06.660Z,98960.16
2018-12-16T15:10:37.970Z,98967.17
2018-12-16T15:13:09.053Z,98968.84
2018-12-16T15:15:41.090Z,98964.40
2018-12-16T15:18:12.103Z,98963.63
2018-12-16T15:20:43.246Z,98966.38
2018-12-16T15:23:14.602Z,98965.61
2018-12-16T15:25:45.769Z,98960.03
2018-12-16T15:28:16.941Z,98964.45
2018-12-16T15:30:47.929Z,98974.80
2018-12-16T15:33:20.466Z,98968.94
2018-12-16T15:35:51.110Z,98965.58
2018-12-16T15:38:22.425Z,98964.81
2018-12-16T15:40:53.813Z,98957.09
2018-12-16T15:43:24.959Z,98963.72
2018-12-16T15:45:55.971Z,98966.68
2018-12-16T15:48:27.184Z,98958.14
2018-12-16T15:50:58.139Z,98957.69
2018-12-16T15:53:29.057Z,98958.63
2018-12-16T15:56:00.783Z,98963.84
2018-12-16T15:58:32.151Z,98970.48
2018-12-16T16:01:03.336Z,98965.05
2018-12-16T16:03:35.512Z,98951.09
2018-12-16T16:06:06.298Z,98937.70
2018-12-16T16:08:38.103Z,98936.86
2018-12-16T16:11:09.007Z,98932.00
2018-12-16T16:13:40.359Z,98929.25
2018-12-16T16:16:11.296Z,98920.47
2018-12-16T16:18:42.152Z,98906.52
2018-12-16T16:21:13.069Z,98894.22
2018-12-16T16:23:43.871Z,98888.27
2018-12-16T16:26:16.345Z,98886.69
2018-12-16T16:28:47.211Z,98893.44
2018-12-16T16:31:18.408Z,98899.77
2018-12-16T16:33:49.457Z,98916.30
2018-12-16T16:36:20.938Z,98924.33
2018-12-16T16:38:51.891Z,98925.29
2018-12-16T16:41:22.984Z,98914.94
2018-12-16T16:43:54.271Z,98906.26
2018-12-16T16:46:28.516Z,98911.39
2018-12-16T16:48:59.692Z,98904.67
2018-12-16T16:51:30.858Z,98902.32
2018-12-16T16:54:02.113Z,98903.51
2018-12-16T16:56:33.008Z,98901.63
2018-12-16T16:59:04.527Z,98898.47
2018-12-16T17:01:35.473Z,98900.14
2018-12-16T17:04:06.637Z,98905.19
2018-12-16T17:06:37.582Z,98911.91
2018-12-16T17:09:10.006Z,98905.30
2018-12-16T17:11:41.320Z,98903.30
2018-12-16T17:14:12.530Z,98899.61
2018-12-16T17:16:43.696Z,98892.78
2018-12-16T17:19:14.988Z,98902.97
2018-12-16T17:21:46.430Z,98917.69
2018-12-16T17:24:17.600Z,98905.80
2018-12-16T17:26:49.721Z,98903.98
2018-12-16T17:29:21.718Z,98899.84
2018-12-16T17:31:52.714Z,98906.59
2018-12-16T17:34:23.726Z,98895.24
2018-12-16T17:36:55.027Z,98895.13
2018-12-16T17:39:27.297Z,98895.84
2018-12-16T17:41:59.167Z,98897.13
2018-12-16T17:44:30.439Z,98902.44
2018-12-16T17:47:01.285Z,98905.53
2018-12-16T17:49:32.658Z,98894.76
2018-12-16T17:52:03.641Z,98896.50
2018-12-16T17:54:35.148Z,98889.63
2018-12-16T17:57:07.322Z,98883.58
2018-12-16T17:59:38.646Z,98884.36
2018-12-16T18:02:10.421Z,98889.38
2018-12-16T18:04:41.680Z,98885.47
2018-12-16T18:07:14.003Z,98875.91
2018-12-16T18:09:46.044Z,98864.22
2018-12-16T18:12:17.996Z,98866.36
2018-12-16T18:14:50.137Z,98857.31
2018-12-16T18:17:20.979Z,98851.67
2018-12-16T18:19:52.961Z,98843.92
2018-12-16T18:22:24.552Z,98840.05
2018-12-16T18:24:56.551Z,98840.82
2018-12-16T18:27:27.801Z,98840.56
2018-12-16T18:30:00.772Z,98837.94
2018-12-16T18:32:32.576Z,98829.52
2018-12-16T18:35:04.576Z,98818.48
2018-12-16T18:37:37.053Z,98809.83
2018-12-16T18:40:10.226Z,98814.14
2018-12-16T18:42:42.081Z,98806.20
2018-12-16T18:45:13.407Z,98802.59
2018-12-16T18:47:44.764Z,98803.48
2018-12-16T18:50:15.827Z,98805.69
2018-12-16T18:52:47.636Z,98813.43
2018-12-16T18:55:18.945Z,98824.45
2018-12-16T18:57:50.229Z,98816.63
2018-12-16T19:00:21.384Z,98815.75
2018-12-16T19:02:53.386Z,98811.44
2018-12-16T19:05:24.845Z,98802.91
2018-12-16T19:07:56.700Z,98807.23
2018-12-16T19:10:28.423Z,98805.50
2018-12-16T19:12:59.626Z,98811.09
2018-12-16T19:15:31.741Z,98803.80
2018-12-16T19:18:02.999Z,98798.78
2018-12-16T19:20:34.890Z,98793.28
2018-12-16T19:23:06.324Z,98780.92
2018-12-16T19:25:39.151Z,98770.30
2018-12-16T19:28:10.943Z,98764.81
2018-12-16T19:30:42.826Z,98760.61
2018-12-16T19:33:15.010Z,98764.99
2018-12-16T19:35:46.566Z,98764.99
2018-12-16T19:38:18.802Z,98763.70
2018-12-16T19:40:50.983Z,98761.30
2018-12-16T19:43:22.455Z,98753.22
2018-12-16T19:45:56.066Z,98745.63
2018-12-16T19:48:28.390Z,98749.49
2018-12-16T19:51:01.165Z,98743.30
2018-12-16T19:53:32.804Z,98736.78
2018-12-16T19:56:04.837Z,98727.31
2018-12-16T19:58:38.607Z,98723.37
2018-12-16T20:01:10.178Z,98722.41
2018-12-16T20:03:48.643Z,98710.42
2018-12-16T20:06:56.523Z,98710.94
2018-12-16T20:09:29.202Z,98698.85
2018-12-16T20:12:07.651Z,98705.78
2018-12-16T20:14:41.561Z,98704.97
2018-12-16T20:17:13.029Z,98715.81
2018-12-16T20:19:47.949Z,98717.09
2018-12-16T20:22:20.886Z,98711.67
2018-12-16T20:24:54.744Z,98705.48
2018-12-16T20:27:26.863Z,98690.92
2018-12-16T20:29:58.342Z,98681.12
2018-12-16T20:32:30.377Z,98664.72
2018-12-16T20:35:02.292Z,98652.29
2018-12-16T20:37:34.828Z,98651.00
2018-12-16T20:40:07.347Z,98645.77
2018-12-16T20:42:38.629Z,98645.36
2018-12-16T20:45:11.893Z,98635.00
2018-12-16T20:47:43.652Z,98631.58
2018-12-16T20:50:14.890Z,98621.25
2018-12-16T20:52:46.528Z,98623.43
2018-12-16T20:55:18.916Z,98627.26
2018-12-16T20:57:52.920Z,98633.23
2018-12-16T21:00:25.039Z,98628.99
2018-12-16T21:02:57.064Z,98623.43
2018-12-16T21:05:28.024Z,98626.09
2018-12-16T21:07:59.349Z,98640.72
2018-12-16T21:10:30.685Z,98646.40
2018-12-16T21:13:07.336Z,98634.53
2018-12-16T21:15:43.783Z,98631.95
2018-12-16T21:18:19.846Z,98614.81
2018-12-16T21:20:50.967Z,98599.58
2018-12-16T21:23:22.129Z,98594.50
2018-12-16T21:25:53.628Z,98607.70
2018-12-16T21:28:25.272Z,98615.77
2018-12-16T21:30:56.532Z,98620.74
2018-12-16T21:33:27.763Z,98624.98
2018-12-16T21:35:59.121Z,98620.22
2018-12-16T21:38:30.879Z,98615.31
2018-12-16T21:41:01.952Z,98604.48
2018-12-16T21:43:34.875Z,98595.45
2018-12-16T21:46:06.471Z,98598.03
2018-12-16T21:48:37.550Z,98600.46
2018-12-16T21:51:09.922Z,98591.83
2018-12-16T21:53:41.049Z,98584.48
2018-12-16T21:56:13.004Z,98583.97
2018-12-16T21:58:43.838Z,98584.34
2018-12-16T22:01:14.601Z,98577.37
2018-12-16T22:03:45.808Z,98559.19
2018-12-16T22:06:16.978Z,98547.86
2018-12-16T22:08:48.124Z,98545.23
2018-12-16T22:11:18.919Z,98549.11
2018-12-16T22:13:50.608Z,98534.44
2018-12-16T22:16:21.717Z,98537.78
2018-12-16T22:18:54.405Z,98534.71
2018-12-16T22:21:25.425Z,98524.67
2018-12-16T22:23:56.270Z,98519.92
2018-12-16T22:26:27.213Z,98515.12
2018-12-16T22:28:58.393Z,98512.17
2018-12-16T22:31:29.327Z,98509.06
2018-12-16T22:34:01.834Z,98505.19
2018-12-16T22:36:33.713Z,98510.36
2018-12-16T22:39:06.261Z,98502.61
2018-12-16T22:41:37.509Z,98511.12
2018-12-16T22:44:08.452Z,98506.33
2018-12-16T22:46:39.453Z,98499.50
2018-12-16T22:49:10.158Z,98499.50
2018-12-16T22:51:42.655Z,98489.55
2018-12-16T22:54:13.640Z,98490.31
2018-12-16T22:56:44.515Z,98486.84
2018-12-16T22:59:15.480Z,98475.59
2018-12-16T23:01:46.387Z,98473.41
2018-12-16T23:04:17.030Z,98457.07
2018-12-16T23:06:47.975Z,98454.48
2018-12-16T23:09:18.768Z,98451.83
2018-12-16T23:11:49.526Z,98445.69
2018-12-16T23:14:20.613Z,98440.16
2018-12-16T23:16:51.706Z,98432.78
2018-12-16T23:19:22.595Z,98425.20
2018-12-16T23:21:53.593Z,98419.95
2018-12-16T23:24:25.557Z,98427.30
2018-12-16T23:26:56.295Z,98426.48
2018-12-16T23:29:27.151Z,98438.55
2018-12-16T23:31:57.915Z,98428.15
2018-12-16T23:34:28.740Z,98433.26
2018-12-16T23:36:59.837Z,98428.86
2018-12-16T23:39:30.891Z,98419.88
2018-12-16T23:42:01.707Z,98412.12
2018-12-16T23:44:32.557Z,98406.59
2018-12-16T23:47:03.589Z,98426.03
2018-12-16T23:49:34.454Z,98435.91
2018-12-16T23:52:05.386Z,98432.05
2018-12-16T23:54:36.708Z,98422.11
2018-12-16T23:57:07.641Z,98402.22
2018-12-16T23:59:38.759Z,98403.88
